createdAt,value
2023-04-24T00:01:10.084Z,99315.44
2023-04-24T00:03:38.254Z,99321.00
2023-04-24T00:06:06.368Z,99319.38
2023-04-24T00:08:33.469Z,99323.78
2023-04-24T00:11:00.491Z,99326.56
2023-04-24T00:13:29.300Z,99326.47
2023-04-24T00:15:56.986Z,99322.53
2023-04-24T00:18:23.612Z,99331.69
2023-04-24T00:20:50.303Z,99335.28
2023-04-24T00:23:17.076Z,99324.06
2023-04-24T00:25:43.758Z,99329.63
2023-04-24T00:28:10.551Z,99330.44
2023-04-24T00:30:37.509Z,99322.88
2023-04-24T00:33:04.322Z,99318.06
2023-04-24T00:35:31.242Z,99331.16
2023-04-24T00:37:57.936Z,99333.84
2023-04-24T00:40:24.796Z,99329.84
2023-04-24T00:42:51.591Z,99327.88
2023-04-24T00:45:18.319Z,99331.41
2023-04-24T00:47:46.422Z,99330.19
2023-04-24T00:50:15.290Z,99328.59
2023-04-24T00:52:42.135Z,99319.88
2023-04-24T00:55:09.524Z,99329.41
2023-04-24T00:57:36.636Z,99322.94
2023-04-24T01:00:04.431Z,99326.16
2023-04-24T01:02:31.442Z,99326.97
2023-04-24T01:04:58.384Z,99316.66
2023-04-24T01:07:28.606Z,99319.78
2023-04-24T01:09:55.400Z,99316.56
2023-04-24T01:12:22.255Z,99327.69
2023-04-24T01:14:51.006Z,99314.22
2023-04-24T01:17:17.992Z,99322.13
2023-04-24T01:19:47.873Z,99324.91
2023-04-24T01:22:15.374Z,99318.91
2023-04-24T01:24:43.126Z,99321.22
2023-04-24T01:27:12.985Z,99315.31
2023-04-24T01:29:40.570Z,99305.00
2023-04-24T01:32:08.353Z,99317.66
2023-04-24T01:34:35.376Z,99321.22
2023-04-24T01:37:02.237Z,99323.56
2023-04-24T01:39:29.656Z,99318.03
2023-04-24T01:41:57.205Z,99325.19
2023-04-24T01:44:24.639Z,99327.56
2023-04-24T01:46:51.631Z,99328.72
2023-04-24T01:49:18.859Z,99321.59
2023-04-24T01:51:46.169Z,99320.00
2023-04-24T01:54:13.109Z,99324.31
2023-04-24T01:56:43.843Z,99324.31
2023-04-24T01:59:13.575Z,99317.16
2023-04-24T02:01:40.715Z,99320.72
2023-04-24T02:04:08.804Z,99318.66
2023-04-24T02:06:36.328Z,99317.16
2023-04-24T02:09:04.419Z,99318.31
2023-04-24T02:11:31.580Z,99322.25
2023-04-24T02:13:58.630Z,99327.38
2023-04-24T02:16:25.912Z,99324.59
2023-04-24T02:18:52.844Z,99323.44
2023-04-24T02:21:19.562Z,99325.75
2023-04-24T02:23:46.235Z,99331.31
2023-04-24T02:26:13.921Z,99320.19
2023-04-24T02:28:40.789Z,99328.91
2023-04-24T02:31:07.890Z,99324.16
2023-04-24T02:33:34.630Z,99319.31
2023-04-24T02:36:01.381Z,99328.91
2023-04-24T02:38:28.302Z,99325.31
2023-04-24T02:40:55.208Z,99334.81
2023-04-24T02:43:22.041Z,99324.06
2023-04-24T02:45:48.760Z,99329.53
2023-04-24T02:48:15.784Z,99320.03
2023-04-24T02:50:42.450Z,99328.38
2023-04-24T02:53:09.244Z,99323.97
2023-04-24T02:55:36.675Z,99316.03
2023-04-24T02:58:03.588Z,99315.19
2023-04-24T03:00:30.989Z,99315.94
2023-04-24T03:02:58.015Z,99314.78
2023-04-24T03:05:24.947Z,99324.69
2023-04-24T03:07:53.624Z,99325.88
2023-04-24T03:10:23.723Z,99324.69
2023-04-24T03:12:50.674Z,99320.31
2023-04-24T03:15:18.852Z,99319.88
2023-04-24T03:17:45.611Z,99326.59
2023-04-24T03:20:12.697Z,99318.28
2023-04-24T03:22:39.518Z,99325.69
2023-04-24T03:25:10.336Z,99327.75
2023-04-24T03:27:38.357Z,99327.75
2023-04-24T03:30:16.624Z,99326.13
2023-04-24T03:32:51.165Z,99331.69
2023-04-24T03:35:23.552Z,99337.25
2023-04-24T03:37:51.138Z,99338.78
2023-04-24T03:40:37.995Z,99333.22
2023-04-24T03:43:12.883Z,99333.94
2023-04-24T03:45:39.684Z,99339.97
2023-04-24T03:48:07.415Z,99339.50
2023-04-24T03:50:34.725Z,99334.31
2023-04-24T03:53:02.195Z,99333.88
2023-04-24T03:55:36.226Z,99332.69
2023-04-24T03:58:03.602Z,99335.47
2023-04-24T04:00:34.342Z,99334.66
2023-04-24T04:03:20.107Z,99339.44
2023-04-24T04:05:47.294Z,99339.31
2023-04-24T04:08:14.023Z,99341.75
2023-04-24T04:10:40.838Z,99341.75
2023-04-24T04:13:07.616Z,99348.13
2023-04-24T04:15:35.744Z,99351.28
2023-04-24T04:18:02.629Z,99348.81
2023-04-24T04:20:29.995Z,99353.56
2023-04-24T04:22:56.903Z,99350.34
2023-04-24T04:25:35.340Z,99347.13
2023-04-24T04:28:03.018Z,99355.88
2023-04-24T04:30:33.186Z,99348.72
2023-04-24T04:33:03.641Z,99351.88
2023-04-24T04:35:31.956Z,99351.06
2023-04-24T04:37:59.837Z,99352.69
2023-04-24T04:40:27.379Z,99350.97
2023-04-24T04:42:59.282Z,99358.22
2023-04-24T04:45:29.512Z,99357.75
2023-04-24T04:48:34.879Z,99365.66
2023-04-24T04:51:03.377Z,99375.16
2023-04-24T04:53:30.408Z,99376.34
2023-04-24T04:55:57.445Z,99373.09
2023-04-24T04:58:28.545Z,99372.28
2023-04-24T05:00:58.619Z,99373.09
2023-04-24T05:03:37.205Z,99380.97
2023-04-24T05:06:08.087Z,99383.41
2023-04-24T05:08:38.097Z,99391.28
2023-04-24T05:11:08.026Z,99390.94
2023-04-24T05:13:40.708Z,99392.47
2023-04-24T05:16:22.784Z,99391.09
2023-04-24T05:18:52.319Z,99396.59
2023-04-24T05:21:23.610Z,99404.81
2023-04-24T05:23:52.234Z,99409.47
2023-04-24T05:26:31.132Z,99415.00
2023-04-24T05:28:59.978Z,99415.81
2023-04-24T05:31:26.864Z,99423.72
2023-04-24T05:33:53.590Z,99422.91
2023-04-24T05:36:20.612Z,99424.44
2023-04-24T05:38:47.388Z,99421.66
2023-04-24T05:41:14.860Z,99433.91
2023-04-24T05:43:42.097Z,99446.97
2023-04-24T05:46:08.708Z,99452.53
2023-04-24T05:48:35.576Z,99454.06
2023-04-24T05:51:04.353Z,99454.44
2023-04-24T05:53:31.524Z,99449.69
2023-04-24T05:55:58.484Z,99463.91
2023-04-24T05:58:25.502Z,99474.22
2023-04-24T06:00:52.389Z,99471.81
2023-04-24T06:03:19.403Z,99474.91
2023-04-24T06:05:48.272Z,99486.84
2023-04-24T06:08:14.955Z,99489.59
2023-04-24T06:10:43.947Z,99490.78
2023-04-24T06:13:12.151Z,99492.94
2023-04-24T06:15:43.375Z,99511.47
2023-04-24T06:18:20.421Z,99515.19
2023-04-24T06:20:48.774Z,99522.06
2023-04-24T06:23:15.646Z,99525.31
2023-04-24T06:25:42.558Z,99540.09
2023-04-24T06:28:11.965Z,99527.56
2023-04-24T06:30:38.636Z,99543.16
2023-04-24T06:33:18.765Z,99535.91
2023-04-24T06:35:46.658Z,99542.28
2023-04-24T06:38:13.242Z,99549.44
2023-04-24T06:40:40.263Z,99546.66
2023-04-24T06:43:07.343Z,99547.03
2023-04-24T06:45:34.238Z,99552.69
2023-04-24T06:48:01.071Z,99551.78
2023-04-24T06:50:27.862Z,99551.16
2023-04-24T06:52:54.582Z,99558.19
2023-04-24T06:55:21.533Z,99570.44
2023-04-24T06:57:48.385Z,99577.31
2023-04-24T07:00:15.494Z,99580.53
2023-04-24T07:02:42.252Z,99595.06
2023-04-24T07:05:09.457Z,99599.28
2023-04-24T07:07:38.955Z,99604.94
2023-04-24T07:10:06.708Z,99609.59
2023-04-24T07:12:34.026Z,99610.13
2023-04-24T07:15:01.605Z,99611.66
2023-04-24T07:17:28.420Z,99614.19
2023-04-24T07:19:55.147Z,99626.91
2023-04-24T07:22:21.863Z,99624.59
2023-04-24T07:24:48.644Z,99633.84
2023-04-24T07:27:16.271Z,99636.38
2023-04-24T07:29:43.925Z,99642.13
2023-04-24T07:32:11.422Z,99637.91
2023-04-24T07:34:38.328Z,99650.63
2023-04-24T07:37:05.382Z,99644.28
2023-04-24T07:39:32.670Z,99652.69
2023-04-24T07:42:00.452Z,99652.34
2023-04-24T07:44:27.362Z,99652.34
2023-04-24T07:46:54.541Z,99658.75
2023-04-24T07:49:21.160Z,99660.34
2023-04-24T07:51:47.894Z,99665.56
2023-04-24T07:54:14.710Z,99666.91
2023-04-24T07:56:43.999Z,99677.22
2023-04-24T07:59:11.393Z,99670.03
2023-04-24T08:01:38.056Z,99685.16
2023-04-24T08:04:04.887Z,99699.50
2023-04-24T08:06:32.940Z,99694.81
2023-04-24T08:09:00.763Z,99688.81
2023-04-24T08:11:28.257Z,99691.59
2023-04-24T08:13:55.978Z,99699.66
2023-04-24T08:16:24.940Z,99692.50
2023-04-24T08:18:52.214Z,99708.50
2023-04-24T08:21:19.855Z,99715.66
2023-04-24T08:23:47.171Z,99715.94
2023-04-24T08:26:14.988Z,99718.00
2023-04-24T08:28:41.653Z,99722.41
2023-04-24T08:31:08.351Z,99728.41
2023-04-24T08:33:37.844Z,99738.84
2023-04-24T08:36:06.098Z,99741.25
2023-04-24T08:38:33.083Z,99753.56
2023-04-24T08:41:01.251Z,99769.09
2023-04-24T08:43:29.220Z,99773.06
2023-04-24T08:45:57.768Z,99772.34
2023-04-24T08:48:30.870Z,99779.91
2023-04-24T08:51:00.123Z,99789.13
2023-04-24T08:53:28.097Z,99789.50
2023-04-24T08:55:57.743Z,99784.03
2023-04-24T08:58:27.539Z,99791.19
2023-04-24T09:00:56.982Z,99792.38
2023-04-24T09:03:24.305Z,99805.13
2023-04-24T09:05:51.667Z,99800.47
2023-04-24T09:08:20.022Z,99803.59
2023-04-24T09:10:49.076Z,99817.19
2023-04-24T09:13:17.824Z,99814.03
2023-04-24T09:15:44.664Z,99810.53
2023-04-24T09:18:11.461Z,99816.91
2023-04-24T09:21:00.212Z,99821.66
2023-04-24T09:23:30.508Z,99825.25
2023-04-24T09:25:58.349Z,99831.03
2023-04-24T09:28:31.463Z,99830.56
2023-04-24T09:31:05.502Z,99829.31
2023-04-24T09:33:32.393Z,99830.94
2023-04-24T09:36:00.204Z,99831.75
2023-04-24T09:38:37.770Z,99841.38
2023-04-24T09:41:07.007Z,99842.19
2023-04-24T09:43:35.302Z,99839.72
2023-04-24T09:46:07.570Z,99851.69
2023-04-24T09:48:36.436Z,99848.56
2023-04-24T09:51:05.179Z,99858.09
2023-04-24T09:53:32.231Z,99853.31
2023-04-24T09:56:09.310Z,99854.47
2023-04-24T09:58:37.512Z,99854.91
2023-04-24T10:01:04.740Z,99855.28
2023-04-24T10:03:33.549Z,99850.97
2023-04-24T10:06:01.978Z,99858.19
2023-04-24T10:08:35.561Z,99864.56
2023-04-24T10:11:03.059Z,99859.44
2023-04-24T10:13:29.969Z,99860.16
2023-04-24T10:15:57.447Z,99860.13
2023-04-24T10:18:26.212Z,99858.88
2023-04-24T10:20:55.877Z,99863.06
2023-04-24T10:23:24.213Z,99876.34
2023-04-24T10:25:52.237Z,99880.47
2023-04-24T10:28:20.306Z,99887.28
2023-04-24T10:30:47.520Z,99896.66
2023-04-24T10:33:15.223Z,99886.75
2023-04-24T10:35:46.857Z,99893.97
2023-04-24T10:38:16.766Z,99889.97
2023-04-24T10:40:45.110Z,99890.56
2023-04-24T10:43:17.100Z,99890.84
2023-04-24T10:46:02.325Z,99903.88
2023-04-24T10:48:29.042Z,99905.03
2023-04-24T10:50:55.894Z,99903.06
2023-04-24T10:53:24.582Z,99901.81
2023-04-24T10:56:14.481Z,99904.16
2023-04-24T10:58:49.144Z,99909.25
2023-04-24T11:01:36.079Z,99912.88
2023-04-24T11:04:04.709Z,99919.16
2023-04-24T11:06:34.132Z,99927.63
2023-04-24T11:09:06.395Z,99921.81
2023-04-24T11:11:34.077Z,99921.75
2023-04-24T11:14:01.077Z,99912.91
2023-04-24T11:16:36.319Z,99919.41
2023-04-24T11:19:16.313Z,99916.16
2023-04-24T11:21:43.306Z,99917.91
2023-04-24T11:24:30.164Z,99913.00
2023-04-24T11:27:03.426Z,99918.16
2023-04-24T11:29:54.315Z,99923.81
2023-04-24T11:32:37.448Z,99920.94
2023-04-24T11:35:22.073Z,99916.06
2023-04-24T11:38:18.842Z,99922.38
2023-04-24T11:40:41.229Z,99927.31
2023-04-24T11:43:09.759Z,99930.34
2023-04-24T11:45:36.676Z,99939.53
2023-04-24T11:48:04.617Z,99941.06
2023-04-24T11:50:31.722Z,99949.53
2023-04-24T11:52:58.685Z,99943.94
2023-04-24T11:55:28.328Z,99952.59
2023-04-24T11:58:00.533Z,99951.88
2023-04-24T12:00:29.062Z,99957.44
2023-04-24T12:03:10.334Z,99961.38
2023-04-24T12:05:37.925Z,99958.22
2023-04-24T12:08:04.983Z,99964.19
2023-04-24T12:10:33.585Z,99968.59
2023-04-24T12:13:01.404Z,99976.97
2023-04-24T12:15:28.928Z,99983.88
2023-04-24T12:17:56.751Z,99982.25
2023-04-24T12:20:29.979Z,99984.13
2023-04-24T12:22:58.158Z,99991.78
2023-04-24T12:25:27.640Z,99993.84
2023-04-24T12:28:13.672Z,99994.84
2023-04-24T12:30:50.126Z,100000.84
2023-04-24T12:33:21.001Z,100000.84
2023-04-24T12:35:49.772Z,99992.97
2023-04-24T12:38:17.203Z,99996.50
2023-04-24T12:40:44.728Z,99998.41
2023-04-24T12:43:15.974Z,99999.94
2023-04-24T12:45:42.719Z,100002.19
2023-04-24T12:48:09.371Z,100011.47
2023-04-24T12:50:36.134Z,100011.25
2023-04-24T12:53:02.869Z,100007.75
2023-04-24T12:55:29.599Z,100006.84
2023-04-24T12:57:57.085Z,100006.41
2023-04-24T13:00:23.951Z,100010.34
2023-04-24T13:02:50.827Z,100015.00
2023-04-24T13:05:18.092Z,100017.03
2023-04-24T13:07:44.838Z,100011.13
2023-04-24T13:10:11.800Z,100016.56
2023-04-24T13:12:39.749Z,100014.06
2023-04-24T13:15:07.320Z,100011.91
2023-04-24T13:17:34.321Z,100009.84
2023-04-24T13:20:01.008Z,99998.22
2023-04-24T13:22:28.318Z,100015.91
2023-04-24T13:24:55.580Z,100008.50
2023-04-24T13:27:22.303Z,100010.03
2023-04-24T13:29:48.950Z,100003.56
2023-04-24T13:32:16.083Z,100013.44
2023-04-24T13:34:42.861Z,100019.28
2023-04-24T13:37:09.603Z,100018.81
2023-04-24T13:39:36.410Z,100014.66
2023-04-24T13:42:04.882Z,100009.91
2023-04-24T13:44:32.612Z,100011.06
2023-04-24T13:46:59.668Z,100006.91
2023-04-24T13:49:27.604Z,100012.38
2023-04-24T13:51:56.115Z,100004.75
2023-04-24T13:54:24.479Z,100002.69
2023-04-24T13:56:52.827Z,99998.72
2023-04-24T13:59:20.933Z,99997.09
2023-04-24T14:01:48.722Z,99990.34
2023-04-24T14:04:15.829Z,99995.47
2023-04-24T14:06:42.680Z,99990.63
2023-04-24T14:09:09.491Z,99988.53
2023-04-24T14:11:36.468Z,99996.44
2023-04-24T14:14:03.912Z,100000.38
2023-04-24T14:16:31.842Z,99998.31
2023-04-24T14:18:59.001Z,99997.84
2023-04-24T14:21:25.705Z,99997.84
2023-04-24T14:23:52.322Z,99993.44
2023-04-24T14:26:19.001Z,99989.06
2023-04-24T14:28:45.641Z,99975.13
2023-04-24T14:31:12.439Z,99993.69
2023-04-24T14:33:39.114Z,99989.13
2023-04-24T14:36:06.736Z,99987.56
2023-04-24T14:38:33.905Z,99983.09
2023-04-24T14:43:31.142Z,99990.69
2023-04-24T14:45:57.836Z,99990.69
2023-04-24T14:48:24.518Z,99990.69
2023-04-24T14:50:51.464Z,99988.97
2023-04-24T14:53:18.471Z,99995.38
2023-04-24T14:55:45.553Z,100003.25
2023-04-24T14:58:12.290Z,100001.66
2023-04-24T15:00:39.231Z,100002.56
2023-04-24T15:03:06.082Z,100005.00
2023-04-24T15:05:33.486Z,100008.84
2023-04-24T15:08:00.573Z,100011.16
2023-04-24T15:10:27.344Z,100013.69
2023-04-24T15:12:54.084Z,100006.03
2023-04-24T15:15:20.749Z,100008.44
2023-04-24T15:17:47.407Z,100014.53
2023-04-24T15:20:14.211Z,100015.94
2023-04-24T15:22:41.131Z,100013.88
2023-04-24T15:25:08.403Z,100013.41
2023-04-24T15:27:45.906Z,100006.47
2023-04-24T15:30:14.357Z,100008.34
2023-04-24T15:32:41.377Z,100010.66
2023-04-24T15:35:10.155Z,100009.84
2023-04-24T15:37:38.990Z,100019.28
2023-04-24T15:40:08.286Z,100014.50
2023-04-24T15:42:35.843Z,100016.00
2023-04-24T15:45:02.665Z,100015.31
2023-04-24T15:47:29.405Z,100012.78
2023-04-24T15:49:56.106Z,100012.31
2023-04-24T15:52:22.977Z,100019.03
2023-04-24T15:54:50.130Z,100009.44
2023-04-24T15:57:17.072Z,100010.25
2023-04-24T15:59:45.388Z,100018.13
2023-04-24T16:02:19.386Z,100007.34
2023-04-24T16:04:51.018Z,100018.03
2023-04-24T16:07:20.902Z,100018.03
2023-04-24T16:09:47.714Z,100025.53
2023-04-24T16:12:14.729Z,100029.53
2023-04-24T16:14:42.284Z,100026.16
2023-04-24T16:17:09.441Z,100021.50
2023-04-24T16:19:36.375Z,100023.59
2023-04-24T16:22:04.185Z,100032.03
2023-04-24T16:24:31.323Z,100026.13
2023-04-24T16:26:58.250Z,100033.66
2023-04-24T16:29:25.084Z,100034.94
2023-04-24T16:31:51.920Z,100041.69
2023-04-24T16:34:18.934Z,100040.50
2023-04-24T16:36:45.753Z,100042.28
2023-04-24T16:39:13.221Z,100045.47
2023-04-24T16:41:40.300Z,100039.22
2023-04-24T16:44:07.438Z,100047.81
2023-04-24T16:46:34.654Z,100047.59
2023-04-24T16:49:01.603Z,100038.09
2023-04-24T16:51:29.097Z,100042.72
2023-04-24T16:53:56.209Z,100050.63
2023-04-24T16:56:23.233Z,100048.53
2023-04-24T16:58:50.862Z,100048.09
2023-04-24T17:01:18.057Z,100054.81
2023-04-24T17:03:45.219Z,100054.34
2023-04-24T17:06:12.717Z,100063.16
2023-04-24T17:08:39.394Z,100056.78
2023-04-24T17:11:09.188Z,100063.84
2023-04-24T17:13:36.151Z,100051.09
2023-04-24T17:16:03.051Z,100055.72
2023-04-24T17:18:29.836Z,100062.88
2023-04-24T17:20:56.696Z,100062.44
2023-04-24T17:23:23.542Z,100065.91
2023-04-24T17:25:50.336Z,100065.91
2023-04-24T17:28:29.368Z,100067.53
2023-04-24T17:30:58.564Z,100068.25
2023-04-24T17:33:26.152Z,100062.22
2023-04-24T17:35:53.092Z,100071.25
2023-04-24T17:38:20.933Z,100060.13
2023-04-24T17:40:47.668Z,100060.13
2023-04-24T17:43:18.074Z,100071.25
2023-04-24T17:45:49.834Z,100066.38
2023-04-24T17:48:18.182Z,100070.31
2023-04-24T17:50:46.004Z,100076.63
2023-04-24T17:53:12.720Z,100084.16
2023-04-24T17:55:40.529Z,100074.28
2023-04-24T17:58:07.946Z,100077.97
2023-04-24T18:00:35.300Z,100074.03
2023-04-24T18:03:03.686Z,100074.16
2023-04-24T18:05:31.832Z,100073.09
2023-04-24T18:07:59.203Z,100073.53
2023-04-24T18:10:27.913Z,100078.06
2023-04-24T18:12:55.055Z,100076.75
2023-04-24T18:15:22.070Z,100081.88
2023-04-24T18:17:49.136Z,100093.00
2023-04-24T18:20:17.791Z,100087.13
2023-04-24T18:22:44.805Z,100094.47
2023-04-24T18:25:12.174Z,100099.34
2023-04-24T18:27:40.150Z,100098.66
2023-04-24T18:30:08.658Z,100103.03
2023-04-24T18:32:35.843Z,100102.94
2023-04-24T18:35:03.443Z,100108.22
2023-04-24T18:37:32.860Z,100115.09
2023-04-24T18:39:59.375Z,100111.38
2023-04-24T18:42:26.029Z,100109.75
2023-04-24T18:45:02.562Z,100124.81
2023-04-24T18:47:29.327Z,100118.34
2023-04-24T18:49:56.451Z,100120.53
2023-04-24T18:52:24.245Z,100125.75
2023-04-24T18:54:51.229Z,100124.34
2023-04-24T18:57:18.000Z,100128.31
2023-04-24T18:59:44.794Z,100128.03
2023-04-24T19:02:11.854Z,100136.06
2023-04-24T19:04:38.653Z,100141.16
2023-04-24T19:07:05.548Z,100138.94
2023-04-24T19:09:32.358Z,100141.25
2023-04-24T19:12:00.194Z,100146.81
2023-04-24T19:14:27.005Z,100145.06
2023-04-24T19:16:54.011Z,100154.56
2023-04-24T19:19:21.730Z,100158.84
2023-04-24T19:21:50.121Z,100168.00
2023-04-24T19:24:19.085Z,100157.56
2023-04-24T19:26:46.385Z,100161.41
2023-04-24T19:29:13.202Z,100168.94
2023-04-24T19:31:40.195Z,100171.22
2023-04-24T19:34:06.985Z,100169.94
2023-04-24T19:36:34.046Z,100169.94
2023-04-24T19:39:00.988Z,100174.72
2023-04-24T19:41:27.717Z,100169.00
2023-04-24T19:43:54.495Z,100179.66
2023-04-24T19:46:21.402Z,100185.56
2023-04-24T19:48:48.352Z,100182.44
2023-04-24T19:51:15.486Z,100188.34
2023-04-24T19:53:43.558Z,100191.00
2023-04-24T19:56:10.587Z,100193.31
2023-04-24T19:58:37.218Z,100186.78
2023-04-24T20:01:05.927Z,100192.50
2023-04-24T20:03:34.010Z,100195.63
2023-04-24T20:06:01.485Z,100184.00
2023-04-24T20:08:28.226Z,100191.06
2023-04-24T20:10:57.818Z,100191.44
2023-04-24T20:13:27.550Z,100185.88
2023-04-24T20:15:54.152Z,100184.22
2023-04-24T20:18:21.366Z,100186.56
2023-04-24T20:20:48.090Z,100194.88
2023-04-24T20:23:14.806Z,100193.72
2023-04-24T20:25:41.436Z,100188.84
2023-04-24T20:28:08.140Z,100186.88
2023-04-24T20:30:34.861Z,100190.00
2023-04-24T20:33:01.692Z,100192.66
2023-04-24T20:35:28.477Z,100190.22
2023-04-24T20:37:55.231Z,100189.53
2023-04-24T20:40:22.030Z,100194.63
2023-04-24T20:42:49.824Z,100196.47
2023-04-24T20:45:17.913Z,100195.28
2023-04-24T20:47:44.771Z,100190.91
2023-04-24T20:50:12.150Z,100193.19
2023-04-24T20:52:39.057Z,100194.81
2023-04-24T20:55:06.882Z,100196.19
2023-04-24T20:57:34.013Z,100190.91
2023-04-24T21:00:04.186Z,100193.88
2023-04-24T21:02:31.070Z,100185.88
2023-04-24T21:04:57.787Z,100183.09
2023-04-24T21:07:24.450Z,100187.53
2023-04-24T21:09:51.211Z,100178.69
2023-04-24T21:12:18.081Z,100183.44
2023-04-24T21:14:44.919Z,100185.06
2023-04-24T21:17:11.736Z,100189.00
2023-04-24T21:19:38.607Z,100185.75
2023-04-24T21:22:05.505Z,100182.16
2023-04-24T21:24:32.273Z,100187.38
2023-04-24T21:26:59.196Z,100186.09
2023-04-24T21:29:26.351Z,100179.38
2023-04-24T21:31:53.304Z,100184.13
2023-04-24T21:34:19.929Z,100188.69
2023-04-24T21:36:47.814Z,100182.31
2023-04-24T21:39:14.719Z,100183.16
2023-04-24T21:41:41.712Z,100178.41
2023-04-24T21:44:08.909Z,100179.25
2023-04-24T21:46:36.145Z,100173.69
2023-04-24T21:49:02.925Z,100187.28
2023-04-24T21:51:29.523Z,100190.88
2023-04-24T21:53:56.330Z,100176.63
2023-04-24T21:56:23.207Z,100180.56
2023-04-24T21:58:50.020Z,100182.19
2023-04-24T22:01:16.931Z,100184.50
2023-04-24T22:03:43.719Z,100185.31
2023-04-24T22:06:10.679Z,100182.84
2023-04-24T22:08:37.511Z,100185.63
2023-04-24T22:11:07.208Z,100185.19
2023-04-24T22:13:37.900Z,100183.53
2023-04-24T22:16:04.806Z,100182.41
2023-04-24T22:18:46.081Z,100179.47
2023-04-24T22:21:13.919Z,100178.19
2023-04-24T22:23:40.792Z,100182.59
2023-04-24T22:26:07.542Z,100183.88
2023-04-24T22:28:34.320Z,100181.09
2023-04-24T22:31:01.213Z,100192.22
2023-04-24T22:33:28.156Z,100185.38
2023-04-24T22:35:55.239Z,100182.59
2023-04-24T22:38:21.846Z,100187.34
2023-04-24T22:40:48.974Z,100180.50
2023-04-24T22:43:17.401Z,100191.63
2023-04-24T22:45:43.986Z,100181.66
2023-04-24T22:48:10.714Z,100182.13
2023-04-24T22:50:37.518Z,100181.66
2023-04-24T22:53:04.145Z,100183.97
2023-04-24T22:55:31.415Z,100181.66
2023-04-24T22:57:58.329Z,100183.97
2023-04-24T23:00:24.994Z,100185.59
2023-04-24T23:02:51.816Z,100182.31
2023-04-24T23:05:21.374Z,100190.19
2023-04-24T23:07:48.078Z,100184.63
2023-04-24T23:10:14.662Z,100187.06
2023-04-24T23:12:41.483Z,100194.91
2023-04-24T23:15:09.783Z,100196.88
2023-04-24T23:17:36.389Z,100194.00
2023-04-24T23:20:04.280Z,100190.84
2023-04-24T23:22:31.267Z,100183.66
2023-04-24T23:24:57.933Z,100180.56
2023-04-24T23:27:24.595Z,100179.44
2023-04-24T23:29:51.922Z,100186.44
2023-04-24T23:32:18.833Z,100190.84
2023-04-24T23:34:45.792Z,100185.31
2023-04-24T23:37:12.693Z,100194.78
2023-04-24T23:39:39.537Z,100184.34
2023-04-24T23:42:07.834Z,100194.50
2023-04-24T23:44:35.050Z,100193.38
2023-04-24T23:47:01.742Z,100193.84
2023-04-24T23:49:28.314Z,100184.34
2023-04-24T23:51:56.269Z,100186.66
2023-04-24T23:54:22.939Z,100183.88
2023-04-24T23:56:50.171Z,100179.50
2023-04-24T23:59:16.835Z,100176.34
